Time;durP1;ratioP1;P1;durP2;ratioP2;P2;SDS_P1;SDS_P2;PMS_P1;PMS_P2;Temp;Humidity;BMP_temperature;BMP_pressure;BME280_temperature;BME280_humidity;BME280_pressure;Samples;Min_cycle;Max_cycle;Signal;HPM_P1;HPM_P2
2023/04/11 00:01:10;;;;;;;5.20;3.90;;;8.30;99.90;;;;;;5043449;28;20037;-42
2023/04/11 00:03:37;;;;;;;5.78;3.90;;;8.20;99.90;;;;;;5046174;28;20096;-43
2023/04/11 00:06:03;;;;;;;5.00;3.63;;;8.20;99.90;;;;;;5041192;28;20469;-42
2023/04/11 00:08:29;;;;;;;5.55;3.90;;;8.20;99.90;;;;;;5044750;28;20040;-43
2023/04/11 00:10:55;;;;;;;5.78;3.92;;;8.30;99.90;;;;;;5039739;28;20100;-42
2023/04/11 00:13:22;;;;;;;6.50;3.90;;;8.30;99.90;;;;;;5043141;28;20028;-42
2023/04/11 00:15:48;;;;;;;5.68;3.47;;;8.30;99.90;;;;;;5041982;28;20060;-42
2023/04/11 00:18:13;;;;;;;4.35;2.90;;;8.40;99.90;;;;;;5046229;28;20064;-42
2023/04/11 00:20:39;;;;;;;7.80;3.13;;;8.40;99.90;;;;;;5039021;28;20067;-42
2023/04/11 00:23:05;;;;;;;5.05;2.90;;;8.60;99.90;;;;;;5065543;28;20092;-42
2023/04/11 00:25:31;;;;;;;4.18;2.90;;;8.70;99.90;;;;;;5048279;28;20025;-42
2023/04/11 00:27:57;;;;;;;3.90;3.40;;;8.80;99.90;;;;;;5045761;28;20092;-42
2023/04/11 00:30:23;;;;;;;4.97;3.03;;;8.80;99.90;;;;;;5042093;28;20033;-42
2023/04/11 00:32:49;;;;;;;4.78;3.22;;;8.80;99.90;;;;;;5044028;28;20028;-42
2023/04/11 00:35:14;;;;;;;4.70;3.20;;;8.60;99.90;;;;;;5039750;28;20021;-42
2023/04/11 00:37:43;;;;;;;5.03;3.13;;;8.60;99.90;;;;;;5037692;28;20032;-43
2023/04/11 00:40:11;;;;;;;4.28;3.28;;;8.60;99.90;;;;;;5036859;28;20112;-42
2023/04/11 00:42:37;;;;;;;4.78;2.88;;;8.60;99.90;;;;;;5043192;28;20037;-42
2023/04/11 00:45:03;;;;;;;4.93;2.72;;;8.60;99.90;;;;;;5042331;28;20533;-42
2023/04/11 00:47:33;;;;;;;3.38;2.78;;;8.70;99.90;;;;;;5045276;28;20032;-43
2023/04/11 00:49:59;;;;;;;2.72;2.47;;;8.90;99.90;;;;;;5042515;28;20029;-42
2023/04/11 00:52:25;;;;;;;5.47;3.10;;;9.10;99.90;;;;;;5041268;28;20052;-42
2023/04/11 00:54:50;;;;;;;4.47;2.85;;;9.20;99.90;;;;;;5043193;28;20025;-42
2023/04/11 00:57:16;;;;;;;4.20;3.05;;;9.30;99.90;;;;;;5041559;28;20025;-42
2023/04/11 00:59:47;;;;;;;5.55;2.42;;;9.30;99.90;;;;;;5042957;28;20450;-42
2023/04/11 01:02:12;;;;;;;2.90;2.50;;;9.40;99.90;;;;;;5040220;28;20433;-31
2023/04/11 01:04:39;;;;;;;3.72;2.38;;;9.40;99.90;;;;;;5046469;28;20021;-31
2023/04/11 01:07:07;;;;;;;2.88;2.47;;;9.40;99.90;;;;;;5032504;28;20035;-31
2023/04/11 01:09:35;;;;;;;2.60;2.40;;;9.50;99.90;;;;;;5036027;28;20047;-31
2023/04/11 01:12:01;;;;;;;3.55;2.30;;;9.50;99.90;;;;;;5039472;28;20081;-32
2023/04/11 01:14:28;;;;;;;3.10;2.38;;;9.50;99.90;;;;;;5042949;28;20040;-31
2023/04/11 01:16:55;;;;;;;2.78;2.38;;;9.50;99.90;;;;;;5050541;28;20548;-31
2023/04/11 01:19:24;;;;;;;4.60;2.60;;;9.50;99.90;;;;;;5040492;28;20048;-31
2023/04/11 01:21:52;;;;;;;4.03;2.25;;;9.50;99.90;;;;;;5044839;28;20524;-31
2023/04/11 01:24:17;;;;;;;3.58;2.42;;;9.60;99.90;;;;;;5041959;28;20029;-31
2023/04/11 01:26:43;;;;;;;4.70;3.10;;;9.50;99.90;;;;;;5042576;28;20501;-30
2023/04/11 01:29:09;;;;;;;3.50;2.70;;;9.50;99.90;;;;;;5046912;28;20040;-32
2023/04/11 01:31:35;;;;;;;3.40;2.70;;;9.50;99.90;;;;;;5046671;28;20068;-30
2023/04/11 01:34:01;;;;;;;4.32;2.55;;;9.50;99.90;;;;;;5049183;28;20025;-32
2023/04/11 01:36:29;;;;;;;4.75;2.78;;;9.40;99.90;;;;;;5037837;28;20025;-31
2023/04/11 01:38:55;;;;;;;38.55;20.13;;;9.40;99.90;;;;;;5039295;28;20505;-33
2023/04/11 01:41:22;;;;;;;5.18;4.00;;;9.40;99.90;;;;;;5041322;28;20029;-33
2023/04/11 01:43:48;;;;;;;5.13;3.38;;;9.40;99.90;;;;;;5043363;28;20033;-31
2023/04/11 01:46:14;;;;;;;5.20;3.92;;;9.40;99.90;;;;;;5044108;28;20457;-31
2023/04/11 01:48:40;;;;;;;60.80;31.23;;;9.50;99.90;;;;;;5042323;28;20026;-31
2023/04/11 01:51:06;;;;;;;18.75;10.43;;;9.50;99.90;;;;;;5040321;28;20033;-32
2023/04/11 01:53:32;;;;;;;5.80;3.83;;;9.50;99.90;;;;;;5040664;28;20076;-32
2023/04/11 01:55:58;;;;;;;5.93;3.45;;;9.60;99.90;;;;;;5042924;28;20048;-31
2023/04/11 01:58:23;;;;;;;25.77;15.27;;;9.60;99.90;;;;;;5045342;28;20040;-31
2023/04/11 02:00:49;;;;;;;38.53;21.40;;;9.60;99.90;;;;;;5042648;28;20039;-32
2023/04/11 02:03:16;;;;;;;33.15;18.95;;;9.60;99.90;;;;;;5042072;28;20080;-31
2023/04/11 02:05:42;;;;;;;31.73;17.63;;;9.60;99.90;;;;;;5039415;28;20382;-32
2023/04/11 02:08:07;;;;;;;11.60;7.80;;;9.70;99.90;;;;;;5041666;28;20036;-32
2023/04/11 02:10:33;;;;;;;3.65;3.30;;;9.70;99.90;;;;;;5039011;28;20106;-31
2023/04/11 02:12:58;;;;;;;3.53;3.10;;;9.70;99.90;;;;;;5046513;28;20060;-33
2023/04/11 02:15:24;;;;;;;5.68;3.10;;;9.70;99.90;;;;;;5043465;28;20017;-31
2023/04/11 02:17:52;;;;;;;4.45;3.60;;;9.70;99.90;;;;;;5043238;28;20533;-31
2023/04/11 02:20:20;;;;;;;;;;;9.60;99.90;;;;;;5032268;28;20505;-32
2023/04/11 02:22:46;;;;;;;16.92;9.18;;;9.60;99.90;;;;;;5044698;28;20688;-33
2023/04/11 02:25:11;;;;;;;13.65;7.95;;;9.60;99.90;;;;;;5035115;28;20044;-31
2023/04/11 02:27:37;;;;;;;11.27;6.60;;;9.70;99.90;;;;;;5037278;28;20057;-31
2023/04/11 02:30:06;;;;;;;7.53;4.03;;;9.70;99.90;;;;;;5038753;28;20039;-32
2023/04/11 02:32:33;;;;;;;4.78;3.45;;;9.70;99.90;;;;;;5036703;28;20036;-32
2023/04/11 02:34:59;;;;;;;4.75;3.33;;;9.70;99.90;;;;;;5030161;28;20123;-31
2023/04/11 02:37:25;;;;;;;4.70;3.10;;;9.70;99.90;;;;;;5040387;28;20033;-32
2023/04/11 02:39:51;;;;;;;4.47;3.03;;;9.70;99.90;;;;;;5046778;28;20566;-33
2023/04/11 02:42:16;;;;;;;4.65;2.50;;;9.70;99.90;;;;;;5031515;28;20095;-32
2023/04/11 02:44:42;;;;;;;3.88;2.85;;;9.70;99.90;;;;;;5040158;28;20106;-32
2023/04/11 02:47:07;;;;;;;9.10;4.65;;;9.80;99.90;;;;;;5046388;28;20088;-31
2023/04/11 02:49:33;;;;;;;6.95;3.72;;;9.80;99.90;;;;;;5040084;28;20449;-31
2023/04/11 02:51:58;;;;;;;17.95;7.63;;;9.80;99.90;;;;;;5035877;28;20053;-32
2023/04/11 02:54:24;;;;;;;15.20;8.55;;;9.90;99.90;;;;;;5037875;28;20025;-31
2023/04/11 02:56:51;;;;;;;4.32;3.28;;;9.90;99.90;;;;;;5039941;28;20082;-31
2023/04/11 02:59:17;;;;;;;3.63;2.15;;;10.00;99.90;;;;;;5047872;28;20029;-30
2023/04/11 03:01:44;;;;;;;2.60;2.08;;;10.10;99.90;;;;;;5038785;28;20039;-32
2023/04/11 03:04:09;;;;;;;2.67;2.10;;;10.20;99.90;;;;;;5046424;28;20025;-31
2023/04/11 03:06:35;;;;;;;2.50;2.10;;;10.20;99.90;;;;;;5040117;28;20091;-31
2023/04/11 03:09:01;;;;;;;1.90;1.80;;;10.30;99.90;;;;;;5037052;28;20112;-32
2023/04/11 03:11:26;;;;;;;2.08;1.98;;;10.30;99.90;;;;;;5038705;28;20094;-31
2023/04/11 03:13:52;;;;;;;4.38;2.78;;;10.30;99.90;;;;;;5041305;28;20029;-31
2023/04/11 03:16:18;;;;;;;2.38;1.88;;;10.30;99.90;;;;;;5039572;28;21045;-32
2023/04/11 03:18:44;;;;;;;2.55;2.10;;;10.40;99.90;;;;;;5055049;28;20043;-32
2023/04/11 03:21:11;;;;;;;3.08;2.30;;;10.40;99.90;;;;;;5048672;28;20422;-31
2023/04/11 03:23:37;;;;;;;5.97;2.47;;;10.30;99.90;;;;;;5041275;28;20042;-31
2023/04/11 03:26:05;;;;;;;18.80;7.07;;;10.30;99.90;;;;;;5044560;28;20029;-31
2023/04/11 03:28:30;;;;;;;5.00;2.87;;;10.30;99.90;;;;;;5038439;28;20032;-32
2023/04/11 03:30:56;;;;;;;5.38;2.63;;;10.30;99.90;;;;;;5037112;28;20046;-32
2023/04/11 03:33:22;;;;;;;6.63;2.80;;;10.40;99.90;;;;;;5046600;28;20463;-32
2023/04/11 03:35:47;;;;;;;3.45;1.90;;;10.40;99.90;;;;;;5045793;28;20684;-31
2023/04/11 03:38:13;;;;;;;2.20;1.92;;;10.30;99.90;;;;;;5044861;28;20088;-32
2023/04/11 03:40:39;;;;;;;1.98;1.85;;;10.40;99.90;;;;;;5051347;28;20033;-34
2023/04/11 03:43:05;;;;;;;2.33;1.90;;;10.40;99.90;;;;;;5044894;28;20047;-31
2023/04/11 03:45:30;;;;;;;2.67;1.70;;;10.40;99.90;;;;;;5046916;28;20029;-32
2023/04/11 03:47:56;;;;;;;2.38;1.63;;;10.50;99.90;;;;;;5037908;28;20437;-33
2023/04/11 03:50:22;;;;;;;2.92;1.80;;;10.40;99.90;;;;;;5046392;28;20038;-31
2023/04/11 03:52:47;;;;;;;1.67;1.58;;;10.40;99.90;;;;;;5038050;28;20071;-31
2023/04/11 03:55:13;;;;;;;2.92;1.67;;;10.60;99.90;;;;;;5048223;28;20113;-31
2023/04/11 03:57:39;;;;;;;6.50;1.77;;;10.60;99.90;;;;;;5035859;28;20386;-31
2023/04/11 04:00:05;;;;;;;4.25;1.88;;;10.60;99.90;;;;;;5035832;28;20037;-32
2023/04/11 04:02:31;;;;;;;1.65;1.55;;;10.60;99.90;;;;;;5044744;28;20053;-32
2023/04/11 04:05:00;;;;;;;2.00;1.80;;;10.80;99.90;;;;;;5050192;28;20071;-31
2023/04/11 04:07:26;;;;;;;1.30;1.20;;;11.00;99.90;;;;;;5044030;28;20525;-32
2023/04/11 04:09:52;;;;;;;2.15;1.45;;;11.10;99.90;;;;;;5048952;28;20147;-31
2023/04/11 04:12:21;;;;;;;1.40;1.30;;;11.20;99.90;;;;;;5042511;28;20538;-31
2023/04/11 04:14:47;;;;;;;1.73;1.50;;;11.30;99.90;;;;;;5046168;28;20025;-32
2023/04/11 04:17:15;;;;;;;1.60;1.50;;;11.20;99.90;;;;;;5039284;28;20051;-31
2023/04/11 04:19:41;;;;;;;1.55;1.45;;;11.50;99.90;;;;;;5045790;28;20025;-31
2023/04/11 04:22:10;;;;;;;1.35;1.27;;;11.50;99.90;;;;;;5039962;28;20049;-31
2023/04/11 04:24:41;;;;;;;1.80;1.30;;;11.50;99.90;;;;;;5050120;28;20037;-32
2023/04/11 04:27:09;;;;;;;2.00;1.52;;;11.60;99.90;;;;;;5037962;28;20499;-31
2023/04/11 04:29:44;;;;;;;1.58;1.40;;;11.70;99.90;;;;;;5037614;28;20029;-31
2023/04/11 04:32:19;;;;;;;2.22;1.73;;;11.70;99.90;;;;;;5043346;28;20036;-31
2023/04/11 04:34:48;;;;;;;1.30;1.23;;;11.80;99.90;;;;;;5047244;28;20029;-31
2023/04/11 04:37:20;;;;;;;1.60;1.50;;;11.90;99.90;;;;;;5039054;28;20032;-31
2023/04/11 04:39:54;;;;;;;1.00;1.00;;;12.10;99.90;;;;;;5041882;28;20024;-31
2023/04/11 04:42:24;;;;;;;4.70;1.48;;;11.90;99.90;;;;;;5043847;28;20521;-32
2023/04/11 04:44:50;;;;;;;1.88;1.67;;;11.70;99.90;;;;;;5040756;28;20036;-33
2023/04/11 04:47:16;;;;;;;2.53;1.27;;;11.50;99.90;;;;;;5062335;28;20091;-32
2023/04/11 04:49:43;;;;;;;3.97;1.58;;;11.40;99.90;;;;;;5047890;28;20029;-33
2023/04/11 04:52:09;;;;;;;2.17;1.77;;;11.20;99.90;;;;;;5050007;28;20605;-31
2023/04/11 04:54:35;;;;;;;1.63;1.27;;;11.20;99.90;;;;;;5042124;28;20021;-31
2023/04/11 04:57:01;;;;;;;2.15;1.40;;;11.10;99.90;;;;;;5047495;28;20482;-33
2023/04/11 04:59:27;;;;;;;1.08;1.00;;;11.10;99.90;;;;;;5041299;28;20036;-31
2023/04/11 05:01:53;;;;;;;4.63;1.63;;;11.10;99.90;;;;;;5043880;28;20481;-32
2023/04/11 05:04:19;;;;;;;3.00;1.65;;;11.10;99.90;;;;;;5037834;28;20022;-32
2023/04/11 05:06:45;;;;;;;1.33;1.23;;;11.00;99.90;;;;;;5043747;28;20440;-31
2023/04/11 05:09:11;;;;;;;1.40;1.10;;;11.00;99.90;;;;;;5044754;28;20025;-32
2023/04/11 05:11:38;;;;;;;1.67;1.58;;;10.90;99.90;;;;;;5048873;28;20096;-32
2023/04/11 05:14:04;;;;;;;1.73;1.63;;;10.90;99.90;;;;;;5038916;28;20025;-32
2023/04/11 05:16:29;;;;;;;1.80;1.50;;;10.80;99.90;;;;;;5044723;28;20029;-32
2023/04/11 05:18:58;;;;;;;1.35;1.08;;;10.90;99.90;;;;;;5042709;28;20398;-32
2023/04/11 05:21:25;;;;;;;3.25;1.92;;;10.80;99.90;;;;;;5058417;28;20489;-33
2023/04/11 05:23:51;;;;;;;2.10;1.90;;;10.80;99.90;;;;;;5040858;28;20036;-33
2023/04/11 05:26:16;;;;;;;2.08;1.90;;;10.70;99.90;;;;;;5037815;28;20033;-32
2023/04/11 05:28:42;;;;;;;1.95;1.50;;;10.60;99.90;;;;;;5036376;28;20072;-31
2023/04/11 05:31:08;;;;;;;1.45;1.25;;;10.50;99.90;;;;;;5038099;28;20037;-31
2023/04/11 05:33:37;;;;;;;1.40;1.30;;;10.30;99.90;;;;;;5044096;28;20480;-31
2023/04/11 05:36:03;;;;;;;1.92;1.40;;;10.20;99.90;;;;;;5038971;28;20037;-30
2023/04/11 05:38:30;;;;;;;1.85;1.10;;;10.10;99.90;;;;;;5039777;28;20029;-32
2023/04/11 05:40:56;;;;;;;1.33;0.98;;;10.00;99.90;;;;;;5045166;28;20037;-32
2023/04/11 05:43:22;;;;;;;2.05;1.00;;;9.90;99.90;;;;;;5035766;28;20036;-33
2023/04/11 05:45:48;;;;;;;0.93;0.88;;;9.90;99.90;;;;;;5036097;28;20040;-33
2023/04/11 05:48:14;;;;;;;1.10;1.08;;;9.90;99.90;;;;;;5055219;28;20079;-32
2023/04/11 05:50:40;;;;;;;2.20;0.98;;;9.80;99.90;;;;;;5041678;28;20060;-31
2023/04/11 05:53:06;;;;;;;1.52;1.08;;;9.90;99.90;;;;;;5037806;28;20442;-31
2023/04/11 05:55:32;;;;;;;1.42;1.17;;;9.90;99.90;;;;;;5042386;28;20060;-31
2023/04/11 05:57:58;;;;;;;1.17;1.17;;;9.90;99.90;;;;;;5041158;28;20407;-31
2023/04/11 06:00:25;;;;;;;1.30;1.17;;;10.00;99.90;;;;;;5038860;28;20035;-35
2023/04/11 06:02:51;;;;;;;1.20;1.20;;;10.00;99.90;;;;;;5056576;28;20025;-31
2023/04/11 06:05:19;;;;;;;1.45;1.35;;;10.00;99.90;;;;;;5037632;28;20087;-32
2023/04/11 06:07:45;;;;;;;1.30;1.17;;;10.10;99.90;;;;;;5040836;28;20110;-31
2023/04/11 06:10:11;;;;;;;1.85;1.50;;;10.00;99.90;;;;;;5041545;28;20029;-32
2023/04/11 06:12:37;;;;;;;3.28;1.75;;;10.10;99.90;;;;;;5042732;28;20023;-31
2023/04/11 06:15:03;;;;;;;2.47;1.50;;;10.10;99.90;;;;;;5044172;28;20128;-32
2023/04/11 06:17:28;;;;;;;1.52;1.30;;;10.10;99.90;;;;;;5036007;28;20029;-31
2023/04/11 06:19:54;;;;;;;1.02;0.98;;;10.10;99.90;;;;;;5041065;28;20036;-31
2023/04/11 06:22:20;;;;;;;1.75;0.95;;;10.20;99.90;;;;;;5034890;28;20029;-33
2023/04/11 06:24:46;;;;;;;3.80;1.60;;;10.10;99.90;;;;;;5043199;28;20091;-32
2023/04/11 06:27:12;;;;;;;2.33;1.23;;;10.00;99.90;;;;;;5042583;28;20030;-32
2023/04/11 06:29:40;;;;;;;0.88;0.88;;;9.90;99.90;;;;;;5040030;28;20026;-32
2023/04/11 06:32:06;;;;;;;1.02;0.90;;;9.90;99.90;;;;;;5040016;28;20036;-31
2023/04/11 06:34:32;;;;;;;0.77;0.77;;;9.80;99.90;;;;;;5036222;28;20431;-32
2023/04/11 06:36:58;;;;;;;1.17;0.73;;;9.80;99.90;;;;;;5045031;28;20490;-31
2023/04/11 06:39:23;;;;;;;0.50;0.50;;;9.70;99.90;;;;;;5043535;28;20156;-32
2023/04/11 06:41:50;;;;;;;0.70;0.70;;;9.70;99.90;;;;;;5046649;28;20416;-31
2023/04/11 06:44:15;;;;;;;0.60;0.60;;;9.70;99.90;;;;;;5041679;28;20425;-32
2023/04/11 06:46:41;;;;;;;0.45;0.45;;;9.60;99.90;;;;;;5043878;28;20025;-32
2023/04/11 06:49:08;;;;;;;0.50;0.50;;;9.50;99.90;;;;;;5044866;28;20029;-31
2023/04/11 06:51:34;;;;;;;0.65;0.57;;;9.40;99.90;;;;;;5040076;28;20053;-32
2023/04/11 06:54:00;;;;;;;0.60;0.60;;;9.40;99.90;;;;;;5046955;28;20117;-31
2023/04/11 06:56:26;;;;;;;0.90;0.60;;;9.40;99.90;;;;;;5047632;28;20036;-32
2023/04/11 06:58:51;;;;;;;0.80;0.80;;;9.30;99.90;;;;;;5041577;28;20033;-31
2023/04/11 07:01:19;;;;;;;0.50;0.50;;;9.40;99.90;;;;;;5045621;28;20064;-31
2023/04/11 07:03:48;;;;;;;0.98;0.60;;;9.40;99.90;;;;;;5041210;28;20538;-31
2023/04/11 07:06:14;;;;;;;0.80;0.80;;;9.40;99.90;;;;;;5041872;28;20039;-32
2023/04/11 07:08:40;;;;;;;0.60;0.60;;;9.50;99.90;;;;;;5041369;28;20476;-32
2023/04/11 07:11:06;;;;;;;0.50;0.50;;;9.40;99.90;;;;;;5044551;28;20386;-31
2023/04/11 07:13:32;;;;;;;0.55;0.50;;;9.30;99.90;;;;;;5040910;28;20024;-32
2023/04/11 07:15:58;;;;;;;1.25;0.70;;;9.30;99.90;;;;;;5051200;28;20497;-32
2023/04/11 07:18:24;;;;;;;0.60;0.60;;;9.30;99.90;;;;;;5042848;28;20029;-32
2023/04/11 07:20:51;;;;;;;0.60;0.60;;;9.20;99.90;;;;;;5047406;28;20108;-31
2023/04/11 07:23:17;;;;;;;3.63;0.90;;;9.10;99.90;;;;;;5038798;28;20398;-32
2023/04/11 07:25:43;;;;;;;1.90;0.75;;;9.10;99.90;;;;;;5039857;28;20036;-32
2023/04/11 07:28:10;;;;;;;0.70;0.70;;;9.20;99.90;;;;;;5046658;28;20029;-31
2023/04/11 07:30:36;;;;;;;0.70;0.70;;;9.20;99.90;;;;;;5042538;28;20429;-31
2023/04/11 07:33:02;;;;;;;0.40;0.40;;;9.10;99.90;;;;;;5042412;28;20032;-31
2023/04/11 07:35:30;;;;;;;0.57;0.57;;;9.00;99.90;;;;;;5036260;28;20033;-32
2023/04/11 07:37:57;;;;;;;0.50;0.50;;;9.00;99.90;;;;;;5047160;28;20548;-32
2023/04/11 07:40:23;;;;;;;0.68;0.68;;;9.00;99.90;;;;;;5041274;28;20037;-31
2023/04/11 07:42:48;;;;;;;0.80;0.80;;;8.90;99.90;;;;;;5040386;28;20033;-31
2023/04/11 07:45:14;;;;;;;1.10;0.70;;;8.80;99.90;;;;;;5041842;28;20060;-31
2023/04/11 07:47:40;;;;;;;2.17;0.65;;;8.80;99.90;;;;;;5047644;28;20582;-31
2023/04/11 07:50:06;;;;;;;0.82;0.82;;;8.80;99.90;;;;;;5040817;28;20064;-31
2023/04/11 07:52:31;;;;;;;1.13;0.98;;;8.90;99.90;;;;;;5047805;28;20033;-31
2023/04/11 07:54:57;;;;;;;0.50;0.50;;;8.90;99.90;;;;;;5037215;28;20056;-32
2023/04/11 07:57:23;;;;;;;0.63;0.63;;;8.90;99.90;;;;;;5047644;28;20028;-32
2023/04/11 07:59:49;;;;;;;1.50;0.63;;;8.70;99.90;;;;;;5042243;28;20033;-31
2023/04/11 08:02:15;;;;;;;1.00;0.63;;;8.70;99.90;;;;;;5044897;28;20048;-33
2023/04/11 08:04:40;;;;;;;0.55;0.55;;;8.70;99.90;;;;;;5041707;28;20150;-32
2023/04/11 08:07:06;;;;;;;0.60;0.60;;;8.60;99.90;;;;;;5045573;28;20118;-31
2023/04/11 08:09:33;;;;;;;1.25;0.70;;;8.50;99.90;;;;;;5054146;28;20403;-31
2023/04/11 08:12:00;;;;;;;1.10;0.50;;;8.50;99.90;;;;;;5041084;28;20028;-32
2023/04/11 08:14:26;;;;;;;1.63;0.60;;;8.50;99.90;;;;;;5036818;28;20038;-31
2023/04/11 08:16:52;;;;;;;0.60;0.60;;;8.60;99.90;;;;;;5045662;28;20567;-31
2023/04/11 08:19:18;;;;;;;0.57;0.57;;;8.70;99.90;;;;;;5042692;28;20548;-32
2023/04/11 08:21:44;;;;;;;3.42;0.70;;;8.80;99.90;;;;;;5038108;28;20041;-31
2023/04/11 08:24:09;;;;;;;0.85;0.50;;;8.80;99.90;;;;;;5061220;28;20052;-31
2023/04/11 08:26:35;;;;;;;0.50;0.50;;;9.00;99.90;;;;;;5044394;28;20556;-31
2023/04/11 08:29:02;;;;;;;0.60;0.60;;;9.00;99.90;;;;;;5052530;28;20042;-31
2023/04/11 08:31:28;;;;;;;0.70;0.70;;;8.80;99.90;;;;;;5037697;28;20053;-32
2023/04/11 08:33:53;;;;;;;0.60;0.60;;;8.80;99.90;;;;;;5039107;28;20619;-30
2023/04/11 08:36:19;;;;;;;0.70;0.70;;;8.90;99.90;;;;;;5044020;28;20461;-31
2023/04/11 08:38:45;;;;;;;0.88;0.70;;;8.90;99.90;;;;;;5044857;28;20163;-32
2023/04/11 08:41:11;;;;;;;1.08;0.70;;;9.00;99.90;;;;;;5042394;28;20084;-31
2023/04/11 08:43:38;;;;;;;0.50;0.50;;;9.20;99.90;;;;;;5039628;28;20037;-31
2023/04/11 08:46:06;;;;;;;0.70;0.70;;;9.20;99.90;;;;;;5044878;28;20474;-31
2023/04/11 08:48:32;;;;;;;1.33;0.80;;;9.40;99.90;;;;;;5044394;28;20525;-32
2023/04/11 08:50:58;;;;;;;0.73;0.73;;;9.40;99.90;;;;;;5034440;28;20399;-33
2023/04/11 08:53:26;;;;;;;1.45;1.10;;;9.30;99.90;;;;;;5038158;28;20029;-31
2023/04/11 08:55:51;;;;;;;3.15;0.90;;;9.70;99.90;;;;;;5042539;28;20029;-32
2023/04/11 08:58:18;;;;;;;1.95;0.80;;;9.80;99.90;;;;;;5045367;28;20032;-31
2023/04/11 09:00:44;;;;;;;1.27;0.77;;;9.80;99.90;;;;;;5043925;28;20025;-32
2023/04/11 09:03:11;;;;;;;0.80;0.80;;;9.80;99.90;;;;;;5044068;28;20421;-33
2023/04/11 09:05:42;;;;;;;2.28;1.05;;;9.60;99.90;;;;;;5041034;28;20108;-32
2023/04/11 09:08:10;;;;;;;0.80;0.60;;;9.60;99.90;;;;;;5047253;28;20052;-34
2023/04/11 09:10:37;;;;;;;1.40;0.75;;;9.60;99.90;;;;;;5039348;28;20093;-33
2023/04/11 09:13:20;;;;;;;1.15;0.73;;;9.40;99.90;;;;;;5043195;28;20541;-33
2023/04/11 09:15:46;;;;;;;3.15;0.80;;;9.40;99.90;;;;;;5039733;28;20067;-33
2023/04/11 09:18:31;;;;;;;0.85;0.80;;;9.40;99.90;;;;;;5040072;28;20534;-33
2023/04/11 09:20:59;;;;;;;1.85;1.13;;;9.50;99.90;;;;;;5038693;28;20080;-32
2023/04/11 09:23:26;;;;;;;0.93;0.70;;;9.60;99.90;;;;;;5047939;28;20028;-33
2023/04/11 09:25:52;;;;;;;1.20;0.70;;;9.50;99.90;;;;;;5041252;28;20043;-33
2023/04/11 09:28:18;;;;;;;1.92;0.75;;;9.50;99.90;;;;;;5040812;28;20029;-33
2023/04/11 09:30:51;;;;;;;3.53;0.75;;;9.50;99.90;;;;;;5054004;28;20034;-32
2023/04/11 09:33:27;;;;;;;0.70;0.70;;;9.50;99.90;;;;;;5041865;28;20029;-33
2023/04/11 09:35:54;;;;;;;0.80;0.80;;;9.40;99.90;;;;;;5038759;28;20056;-32
2023/04/11 09:38:30;;;;;;;1.73;0.60;;;9.30;99.90;;;;;;5042595;28;20037;-33
2023/04/11 09:40:57;;;;;;;0.38;0.38;;;9.40;99.90;;;;;;5049217;28;20402;-33
2023/04/11 09:43:23;;;;;;;0.88;0.60;;;9.50;99.90;;;;;;5042757;28;20418;-33
2023/04/11 09:46:07;;;;;;;1.40;0.70;;;9.60;99.90;;;;;;5047205;28;20033;-33
2023/04/11 09:48:35;;;;;;;2.42;0.85;;;9.70;99.90;;;;;;5042801;28;20021;-33
2023/04/11 09:51:06;;;;;;;0.98;0.85;;;9.80;99.90;;;;;;5039148;28;20136;-33
2023/04/11 09:53:36;;;;;;;2.70;0.80;;;9.90;99.90;;;;;;5041440;28;20493;-32
2023/04/11 09:56:02;;;;;;;1.10;0.90;;;10.00;99.90;;;;;;5037356;28;20394;-32
2023/04/11 09:58:32;;;;;;;0.93;0.65;;;10.10;99.90;;;;;;5042625;28;20109;-32
2023/04/11 10:01:07;;;;;;;1.33;0.70;;;10.10;99.90;;;;;;5035484;28;20047;-33
2023/04/11 10:03:35;;;;;;;0.98;0.80;;;10.20;99.90;;;;;;5041538;28;20029;-33
2023/04/11 10:06:06;;;;;;;2.43;0.80;;;10.00;99.90;;;;;;5044171;28;20116;-32
2023/04/11 10:08:34;;;;;;;0.95;0.73;;;9.90;99.90;;;;;;5049611;28;20071;-31
2023/04/11 10:11:02;;;;;;;0.85;0.85;;;10.00;99.90;;;;;;5041597;28;20059;-31
2023/04/11 10:13:48;;;;;;;3.03;1.00;;;9.80;99.90;;;;;;5035715;28;20104;-31
2023/04/11 10:16:19;;;;;;;0.65;0.60;;;9.90;99.90;;;;;;5045040;28;20029;-32
2023/04/11 10:18:53;;;;;;;1.70;1.08;;;9.90;99.90;;;;;;5038713;28;20061;-31
2023/04/11 10:21:33;;;;;;;3.08;0.98;;;9.90;99.90;;;;;;5040052;28;20426;-31
2023/04/11 10:24:12;;;;;;;2.38;1.15;;;9.70;99.90;;;;;;5036831;28;20033;-31
2023/04/11 10:26:52;;;;;;;1.98;1.00;;;9.80;99.90;;;;;;5046655;28;20451;-31
2023/04/11 10:29:27;;;;;;;1.05;0.85;;;9.70;99.90;;;;;;5035332;28;20098;-32
2023/04/11 10:32:12;;;;;;;1.35;1.08;;;9.80;99.90;;;;;;5040415;28;20037;-33
2023/04/11 10:34:40;;;;;;;1.08;0.70;;;9.70;99.90;;;;;;5041090;28;20021;-32
2023/04/11 10:37:07;;;;;;;;;;;9.70;99.90;;;;;;5046209;28;20037;-31
2023/04/11 10:39:54;;;;;;;1.13;0.80;;;9.80;99.90;;;;;;5041924;28;20386;-31
2023/04/11 10:42:32;;;;;;;3.08;1.00;;;9.80;99.90;;;;;;5043383;28;20029;-33
2023/04/11 10:45:24;;;;;;;;;;;9.90;99.90;;;;;;5037782;28;20505;-32
2023/04/11 10:47:55;;;;;;;2.47;0.80;;;10.00;99.70;;;;;;5035835;28;20392;-31
2023/04/11 10:50:24;;;;;;;1.10;1.00;;;10.50;99.90;;;;;;5041628;28;20478;-31
2023/04/11 10:52:51;;;;;;;2.15;0.80;;;10.70;99.90;;;;;;5035076;28;20045;-32
2023/04/11 10:55:17;;;;;;;1.50;0.88;;;10.70;99.90;;;;;;5042286;28;20435;-32
2023/04/11 10:58:06;;;;;;;2.70;0.80;;;10.70;99.90;;;;;;5038369;28;20392;-32
2023/04/11 11:00:50;;;;;;;0.60;0.60;;;10.90;99.90;;;;;;5044576;28;20033;-31
2023/04/11 11:03:18;;;;;;;0.73;0.70;;;11.20;98.50;;;;;;5038896;28;20048;-32
2023/04/11 11:05:59;;;;;;;2.30;1.10;;;11.00;95.00;;;;;;5041413;28;20037;-32
2023/04/11 11:08:29;;;;;;;3.20;1.25;;;10.70;96.00;;;;;;5071794;28;20041;-32
2023/04/11 11:11:00;;;;;;;3.78;0.90;;;10.60;96.00;;;;;;5034460;28;20032;-31
2023/04/11 11:13:39;;;;;;;0.80;0.80;;;10.60;95.90;;;;;;5040542;28;20043;-31
2023/04/11 11:16:06;;;;;;;2.90;1.60;;;10.60;94.90;;;;;;5042915;28;20470;-32
2023/04/11 11:18:33;;;;;;;2.65;0.90;;;10.40;93.90;;;;;;5038041;28;20037;-32
2023/04/11 11:20:59;;;;;;;1.52;0.95;;;10.40;96.50;;;;;;5040529;28;20513;-31
2023/04/11 11:23:25;;;;;;;0.70;0.70;;;10.50;99.10;;;;;;5037591;28;20157;-31
2023/04/11 11:25:56;;;;;;;2.42;1.00;;;10.30;96.90;;;;;;5042830;28;20042;-31
2023/04/11 11:28:22;;;;;;;1.30;0.80;;;10.30;96.20;;;;;;5039835;28;20061;-32
2023/04/11 11:30:55;;;;;;;0.73;0.73;;;10.20;97.80;;;;;;5049358;28;20056;-30
2023/04/11 11:33:25;;;;;;;2.38;1.00;;;10.20;97.50;;;;;;5039062;28;20016;-31
2023/04/11 11:35:58;;;;;;;3.03;1.17;;;10.40;98.30;;;;;;5058264;28;20475;-31
2023/04/11 11:38:29;;;;;;;2.90;1.00;;;10.60;98.80;;;;;;5037733;28;20128;-31
2023/04/11 11:40:55;;;;;;;1.02;1.02;;;10.80;95.20;;;;;;5048670;28;20052;-32
2023/04/11 11:43:21;;;;;;;2.15;1.00;;;11.00;92.20;;;;;;5042551;28;20036;-31
2023/04/11 11:46:05;;;;;;;1.48;0.90;;;11.20;94.00;;;;;;5042364;28;20141;-32
2023/04/11 11:48:31;;;;;;;1.40;0.93;;;11.50;86.40;;;;;;5037206;28;20072;-31
2023/04/11 11:50:57;;;;;;;2.20;1.00;;;11.30;77.30;;;;;;5044552;28;20728;-32
2023/04/11 11:53:24;;;;;;;1.20;1.00;;;11.00;73.00;;;;;;5042713;28;20140;-31
2023/04/11 11:55:50;;;;;;;2.60;0.88;;;11.00;74.30;;;;;;5041617;28;20470;-32
2023/04/11 11:58:18;;;;;;;4.57;0.98;;;11.10;78.00;;;;;;5042333;28;20076;-32
2023/04/11 12:00:47;;;;;;;2.10;1.58;;;11.00;77.40;;;;;;5042776;28;20037;-32
2023/04/11 12:03:17;;;;;;;3.85;1.10;;;11.00;73.60;;;;;;5049041;28;20512;-31
2023/04/11 12:05:43;;;;;;;1.75;0.75;;;11.20;82.60;;;;;;5042177;28;20048;-31
2023/04/11 12:08:09;;;;;;;2.72;1.27;;;11.40;80.20;;;;;;5043303;28;20043;-33
2023/04/11 12:10:40;;;;;;;4.25;1.00;;;11.50;79.10;;;;;;5042585;28;20477;-32
2023/04/11 12:13:14;;;;;;;1.85;0.98;;;11.40;75.60;;;;;;5040017;28;20536;-32
2023/04/11 12:15:42;;;;;;;1.58;0.90;;;11.20;79.80;;;;;;5039277;28;20029;-32
2023/04/11 12:18:08;;;;;;;1.83;0.90;;;11.20;78.40;;;;;;5050937;28;20050;-31
2023/04/11 12:20:34;;;;;;;4.28;1.20;;;11.40;80.30;;;;;;5040103;28;20028;-32
2023/04/11 12:22:59;;;;;;;2.05;1.35;;;11.40;80.80;;;;;;5042187;28;20037;-32
2023/04/11 12:25:26;;;;;;;3.10;1.27;;;11.60;84.40;;;;;;5050247;28;20036;-31
2023/04/11 12:27:52;;;;;;;2.40;1.10;;;11.70;87.40;;;;;;5043942;28;20048;-32
2023/04/11 12:30:18;;;;;;;2.72;1.05;;;11.90;90.30;;;;;;5039397;28;20022;-31
2023/04/11 12:32:44;;;;;;;3.65;1.33;;;12.30;86.00;;;;;;5041510;28;20037;-31
2023/04/11 12:35:11;;;;;;;3.15;1.52;;;12.40;86.10;;;;;;5038230;28;20040;-31
2023/04/11 12:37:37;;;;;;;1.60;1.20;;;12.50;90.40;;;;;;5044610;28;20060;-32
2023/04/11 12:40:11;;;;;;;1.25;0.90;;;12.30;79.70;;;;;;5040534;28;20021;-31
2023/04/11 12:42:40;;;;;;;3.83;1.00;;;12.00;79.00;;;;;;5044632;28;20064;-31
2023/04/11 12:45:07;;;;;;;1.00;0.90;;;11.70;76.80;;;;;;5040434;28;20045;-32
2023/04/11 12:47:34;;;;;;;0.60;0.60;;;11.50;82.70;;;;;;5041337;28;20074;-32
2023/04/11 12:49:59;;;;;;;2.33;1.00;;;11.60;88.00;;;;;;5037691;28;20056;-30
2023/04/11 12:52:26;;;;;;;2.72;1.40;;;11.60;90.30;;;;;;5047838;28;20083;-31
2023/04/11 12:54:52;;;;;;;1.13;0.90;;;11.70;93.60;;;;;;5042884;28;20037;-31